Thrift, Georgia
Current Conditions -  °F | °C
As of 12:35 PM on Wednesday 26 Nov 2014 (Local Time) from KJYL Reporting Station
Broken Clouds Broken Clouds  
Wind Chill: 54°   Ceiling: 2200
Heat Index: 54°   Visibility: 10mi
Dew Point: 50°   Wind: 12mph
Humidity: 85%   Direction: 310°NW
Pressure: 30.06"   Gusts: NA
Location:  32.7727°N, 81.9794°W
Report Text: KJYL 261735Z AUTO 31010KT 10SM SCT012 BKN022 BKN029 12/10 A3006 RMK AO2 T01240099
Loading
Personal Weather Stations






























Interactive Weather Map New forecast layout! Learn more

10-Day Weather Forecast

Advertisements
Track Severe Weather on mobile